createdAt,value
2022-08-24T00:00:23.067Z,9.90
2022-08-24T00:02:52.595Z,7.23
2022-08-24T00:05:22.132Z,5.27
2022-08-24T00:07:50.830Z,4.73
2022-08-24T00:10:20.479Z,6.90
2022-08-24T00:12:49.979Z,7.73
2022-08-24T00:15:19.418Z,5.00
2022-08-24T00:17:47.496Z,6.40
2022-08-24T00:20:16.995Z,6.50
2022-08-24T00:22:45.108Z,5.90
2022-08-24T00:25:14.682Z,6.33
2022-08-24T00:27:43.269Z,8.53
2022-08-24T00:30:15.428Z,6.10
2022-08-24T00:32:43.412Z,4.90
2022-08-24T00:35:12.015Z,5.60
2022-08-24T00:37:42.104Z,4.70
2022-08-24T00:40:13.812Z,11.60
2022-08-24T00:42:42.471Z,6.37
2022-08-24T00:45:15.808Z,8.33
2022-08-24T00:47:49.107Z,6.83
2022-08-24T00:50:23.155Z,6.50
2022-08-24T00:52:56.683Z,6.30
2022-08-24T00:55:30.449Z,5.40
2022-08-24T00:58:03.536Z,7.33
2022-08-24T01:00:36.067Z,5.23
2022-08-24T01:03:06.882Z,5.63
2022-08-24T01:05:36.791Z,9.03
2022-08-24T01:08:09.207Z,5.50
2022-08-24T01:10:41.076Z,6.90
2022-08-24T01:13:11.925Z,6.30
2022-08-24T01:15:47.320Z,5.60
2022-08-24T01:18:37.578Z,9.87
2022-08-24T01:21:12.696Z,7.77
2022-08-24T01:23:45.047Z,8.37
2022-08-24T01:26:18.190Z,8.33
2022-08-24T01:28:49.094Z,5.30
2022-08-24T01:31:21.196Z,8.20
2022-08-24T01:33:50.639Z,7.03
2022-08-24T01:36:28.274Z,7.17
2022-08-24T01:39:02.242Z,6.07
2022-08-24T01:41:30.309Z,5.60
2022-08-24T01:43:59.171Z,6.60
2022-08-24T01:46:27.926Z,6.80
2022-08-24T01:48:58.056Z,5.30
2022-08-24T01:51:26.326Z,8.43
2022-08-24T01:53:54.515Z,7.17
2022-08-24T01:56:23.963Z,7.77
2022-08-24T01:58:52.149Z,5.47
2022-08-24T02:01:20.537Z,5.13
2022-08-24T02:03:51.808Z,9.53
2022-08-24T02:06:20.315Z,5.97
2022-08-24T02:08:48.540Z,7.17
2022-08-24T02:11:16.940Z,6.47
2022-08-24T02:13:46.321Z,7.47
2022-08-24T02:16:15.183Z,9.07
2022-08-24T02:18:43.999Z,11.90
2022-08-24T02:21:13.919Z,9.90
2022-08-24T02:23:42.732Z,10.37
2022-08-24T02:26:12.424Z,8.03
2022-08-24T02:28:41.065Z,10.80
2022-08-24T02:31:12.410Z,4.97
2022-08-24T02:33:41.291Z,6.03
2022-08-24T02:36:25.410Z,7.53
2022-08-24T02:38:54.749Z,6.37
2022-08-24T02:41:23.654Z,7.00
2022-08-24T02:43:51.678Z,7.80
2022-08-24T02:46:22.696Z,22.03
2022-08-24T02:48:52.993Z,6.47
2022-08-24T02:51:28.200Z,7.73
2022-08-24T02:53:58.269Z,7.40
2022-08-24T02:56:26.476Z,7.30
2022-08-24T02:58:54.518Z,5.93
2022-08-24T03:01:30.357Z,7.90
2022-08-24T03:03:58.861Z,8.83
2022-08-24T03:06:27.084Z,8.00
2022-08-24T03:08:57.015Z,7.00
2022-08-24T03:11:27.922Z,7.50
2022-08-24T03:13:58.382Z,8.97
2022-08-24T03:16:28.096Z,9.20
2022-08-24T03:18:56.273Z,7.70
2022-08-24T03:21:24.596Z,9.50
2022-08-24T03:23:52.908Z,9.40
2022-08-24T03:26:21.063Z,8.40
2022-08-24T03:28:49.591Z,6.60
2022-08-24T03:31:17.883Z,8.53
2022-08-24T03:33:47.611Z,6.50
2022-08-24T03:36:15.616Z,7.73
2022-08-24T03:38:44.326Z,7.60
2022-08-24T03:41:12.689Z,7.13
2022-08-24T03:43:48.644Z,13.70
2022-08-24T03:46:19.237Z,7.47
2022-08-24T03:48:49.665Z,5.37
2022-08-24T03:51:20.876Z,6.53
2022-08-24T03:53:48.859Z,6.00
2022-08-24T03:56:16.958Z,7.30
2022-08-24T03:58:45.105Z,5.70
2022-08-24T04:01:13.712Z,6.67
2022-08-24T04:03:44.669Z,9.70
2022-08-24T04:06:15.982Z,12.17
2022-08-24T04:08:44.346Z,8.50
2022-08-24T04:11:13.194Z,9.80
2022-08-24T04:13:41.136Z,8.30
2022-08-24T04:16:12.897Z,9.63
2022-08-24T04:18:41.565Z,8.20
2022-08-24T04:21:19.394Z,6.60
2022-08-24T04:23:48.111Z,6.47
2022-08-24T04:26:25.612Z,13.93
2022-08-24T04:29:08.435Z,8.60
2022-08-24T04:31:37.070Z,8.17
2022-08-24T04:34:05.359Z,5.70
2022-08-24T04:36:35.914Z,11.80
2022-08-24T04:39:05.329Z,7.80
2022-08-24T04:41:33.350Z,6.03
2022-08-24T04:44:03.202Z,8.10
2022-08-24T04:46:31.759Z,6.97
2022-08-24T04:48:59.808Z,7.67
2022-08-24T04:51:36.371Z,9.43
2022-08-24T04:54:07.288Z,6.50
2022-08-24T04:56:36.381Z,9.37
2022-08-24T04:59:05.777Z,5.10
2022-08-24T05:01:34.208Z,9.40
2022-08-24T05:04:02.840Z,7.10
2022-08-24T05:06:32.361Z,15.40
2022-08-24T05:09:01.373Z,7.70
2022-08-24T05:11:31.112Z,10.00
2022-08-24T05:14:00.201Z,7.67
2022-08-24T05:16:28.838Z,10.83
2022-08-24T05:19:00.345Z,7.40
2022-08-24T05:21:30.840Z,8.33
2022-08-24T05:23:59.189Z,6.57
2022-08-24T05:26:29.287Z,6.97
2022-08-24T05:29:00.831Z,12.03
2022-08-24T05:31:30.663Z,11.10
2022-08-24T05:33:59.995Z,9.70
2022-08-24T05:36:30.363Z,5.70
2022-08-24T05:39:02.064Z,8.00
2022-08-24T05:41:30.473Z,7.17
2022-08-24T05:44:00.151Z,10.07
2022-08-24T05:46:28.513Z,7.73
2022-08-24T05:48:59.160Z,5.67
2022-08-24T05:51:27.314Z,8.60
2022-08-24T05:53:56.273Z,7.70
2022-08-24T05:56:26.728Z,7.63
2022-08-24T05:58:59.467Z,6.23
2022-08-24T06:01:28.221Z,7.10
2022-08-24T06:03:57.559Z,8.33
2022-08-24T06:06:26.597Z,8.83
2022-08-24T06:08:56.671Z,6.80
2022-08-24T06:11:30.158Z,8.77
2022-08-24T06:14:02.638Z,5.50
2022-08-24T06:16:36.420Z,8.93
2022-08-24T06:19:04.711Z,7.33
2022-08-24T06:21:32.923Z,7.03
2022-08-24T06:24:02.098Z,7.70
2022-08-24T06:26:49.116Z,5.53
2022-08-24T06:29:20.182Z,10.83
2022-08-24T06:31:54.249Z,9.20
2022-08-24T06:34:25.939Z,8.27
2022-08-24T06:36:53.981Z,7.60
2022-08-24T06:39:22.061Z,6.97
2022-08-24T06:41:50.055Z,9.77
2022-08-24T06:44:19.426Z,6.93
2022-08-24T06:46:47.486Z,8.30
2022-08-24T06:49:15.609Z,5.30
2022-08-24T06:51:46.390Z,9.30
2022-08-24T06:54:18.323Z,7.10
2022-08-24T06:56:46.315Z,12.33
2022-08-24T06:59:14.370Z,7.60
2022-08-24T07:01:44.580Z,5.70
2022-08-24T07:04:12.830Z,7.00
2022-08-24T07:06:40.868Z,9.70
2022-08-24T07:09:08.845Z,6.90
2022-08-24T07:11:37.155Z,6.87
2022-08-24T07:14:08.730Z,8.10
2022-08-24T07:16:38.169Z,10.03
2022-08-24T07:19:07.586Z,8.97
2022-08-24T07:21:35.688Z,5.83
2022-08-24T07:24:04.271Z,5.53
2022-08-24T07:26:32.818Z,9.37
2022-08-24T07:29:06.234Z,5.40
2022-08-24T07:31:35.695Z,8.00
2022-08-24T07:34:05.104Z,5.50
2022-08-24T07:36:34.915Z,6.63
2022-08-24T07:39:03.065Z,5.20
2022-08-24T07:41:51.568Z,7.30
2022-08-24T07:44:19.954Z,6.30
2022-08-24T07:46:48.603Z,7.63
2022-08-24T07:49:33.294Z,4.47
2022-08-24T07:52:06.965Z,12.40
2022-08-24T07:54:36.028Z,4.63
2022-08-24T07:57:06.525Z,3.63
2022-08-24T07:59:35.010Z,4.17
2022-08-24T08:02:03.542Z,4.40
2022-08-24T08:04:32.105Z,4.67
2022-08-24T08:07:01.604Z,6.20
2022-08-24T08:09:31.759Z,4.80
2022-08-24T08:12:00.111Z,4.80
2022-08-24T08:14:28.476Z,7.53
2022-08-24T08:16:56.884Z,4.50
2022-08-24T08:19:25.170Z,4.00
2022-08-24T08:22:12.347Z,3.80
2022-08-24T08:24:43.436Z,9.33
2022-08-24T08:27:12.193Z,3.03
2022-08-24T08:29:41.250Z,2.73
2022-08-24T08:32:10.314Z,4.53
2022-08-24T08:34:38.667Z,3.90
2022-08-24T08:37:07.492Z,3.27
2022-08-24T08:39:36.119Z,3.03
2022-08-24T08:42:23.026Z,2.23
2022-08-24T08:45:06.422Z,2.50
2022-08-24T08:47:46.167Z,6.10
2022-08-24T08:50:16.410Z,3.33
2022-08-24T08:53:05.745Z,2.70
2022-08-24T08:55:35.471Z,2.20
2022-08-24T08:58:16.833Z,5.13
2022-08-24T09:00:50.197Z,3.00
2022-08-24T09:03:37.290Z,2.40
2022-08-24T09:06:21.134Z,2.20
2022-08-24T09:09:13.419Z,3.23
2022-08-24T09:11:49.484Z,1.97
2022-08-24T09:14:36.296Z,2.07
2022-08-24T09:17:14.899Z,2.07
2022-08-24T09:19:52.526Z,2.10
2022-08-24T09:22:22.691Z,2.47
2022-08-24T09:25:04.494Z,2.50
2022-08-24T09:27:37.578Z,10.43
2022-08-24T09:30:11.095Z,2.37
2022-08-24T09:32:49.986Z,3.10
2022-08-24T09:35:26.294Z,2.80
2022-08-24T09:38:02.139Z,1.80
2022-08-24T09:40:36.517Z,1.67
2022-08-24T09:43:24.261Z,1.70
2022-08-24T09:46:02.532Z,2.20
2022-08-24T09:48:45.761Z,2.50
2022-08-24T09:51:28.928Z,2.43
2022-08-24T09:54:08.218Z,2.20
2022-08-24T09:56:59.860Z,2.00
2022-08-24T09:59:52.600Z,1.53
2022-08-24T10:02:31.816Z,4.60
2022-08-24T10:05:05.293Z,1.50
2022-08-24T10:07:38.147Z,1.60
2022-08-24T10:10:15.247Z,1.50
2022-08-24T10:12:54.148Z,1.80
2022-08-24T10:15:29.060Z,1.57
2022-08-24T10:18:09.115Z,2.10
2022-08-24T10:20:50.536Z,1.50
2022-08-24T10:23:29.299Z,1.80
2022-08-24T10:26:03.195Z,2.23
2022-08-24T10:28:46.349Z,1.60
2022-08-24T10:31:29.587Z,1.20
2022-08-24T10:34:03.014Z,1.93
2022-08-24T10:36:50.919Z,1.80
2022-08-24T10:39:42.452Z,1.93
2022-08-24T10:42:46.433Z,1.70
2022-08-24T10:45:35.460Z,1.80
2022-08-24T10:48:13.221Z,2.93
2022-08-24T10:50:50.435Z,2.40
2022-08-24T10:53:25.382Z,1.40
2022-08-24T10:56:00.836Z,1.77
2022-08-24T10:58:50.663Z,2.70
2022-08-24T11:01:27.602Z,2.20
2022-08-24T11:03:58.855Z,1.90
2022-08-24T11:06:28.554Z,2.03
2022-08-24T11:08:58.468Z,1.80
2022-08-24T11:11:28.754Z,2.10
2022-08-24T11:13:59.137Z,6.50
2022-08-24T11:16:32.532Z,1.63
2022-08-24T11:19:02.670Z,1.73
2022-08-24T11:21:45.111Z,1.73
2022-08-24T11:24:38.675Z,1.87
2022-08-24T11:27:10.255Z,1.70
2022-08-24T11:30:00.832Z,1.60
2022-08-24T11:32:38.886Z,1.67
2022-08-24T11:35:10.767Z,1.37
2022-08-24T11:37:40.197Z,1.90
2022-08-24T11:40:10.802Z,1.40
2022-08-24T11:43:05.762Z,1.83
2022-08-24T11:45:41.904Z,1.67
2022-08-24T11:48:29.893Z,1.17
2022-08-24T11:51:02.292Z,1.13
2022-08-24T11:56:18.727Z,1.63
2022-08-24T11:58:56.183Z,1.40
2022-08-24T12:01:32.903Z,1.63
2022-08-24T12:04:11.592Z,1.40
2022-08-24T12:06:51.083Z,2.30
2022-08-24T12:09:38.060Z,3.70
2022-08-24T12:12:14.694Z,1.63
2022-08-24T12:14:45.742Z,1.27
2022-08-24T12:17:20.348Z,1.30
2022-08-24T12:19:54.452Z,1.50
2022-08-24T12:22:23.688Z,1.10
2022-08-24T12:24:55.140Z,2.00
2022-08-24T12:27:26.795Z,1.33
2022-08-24T12:30:03.629Z,1.73
2022-08-24T12:32:40.657Z,1.70
2022-08-24T12:35:16.906Z,1.57
2022-08-24T12:37:49.347Z,2.17
2022-08-24T12:40:28.427Z,0.97
2022-08-24T12:43:02.043Z,1.23
2022-08-24T12:45:30.053Z,1.40
2022-08-24T12:48:04.327Z,1.50
2022-08-24T12:50:45.471Z,1.30
2022-08-24T12:53:39.117Z,1.50
2022-08-24T12:56:46.957Z,1.03
2022-08-24T12:59:21.427Z,1.30
2022-08-24T13:02:00.459Z,1.23
2022-08-24T13:04:41.423Z,1.60
2022-08-24T13:07:27.342Z,1.40
2022-08-24T13:10:09.663Z,1.10
2022-08-24T13:13:19.890Z,1.13
2022-08-24T13:16:03.081Z,1.30
2022-08-24T13:19:19.352Z,1.00
2022-08-24T13:21:55.860Z,1.50
2022-08-24T13:25:19.672Z,1.43
2022-08-24T13:28:04.131Z,1.30
2022-08-24T13:30:51.358Z,1.73
2022-08-24T13:33:26.027Z,1.17
2022-08-24T13:36:07.524Z,1.20
2022-08-24T13:39:11.058Z,1.07
2022-08-24T13:42:06.220Z,0.80
2022-08-24T13:45:00.917Z,1.30
2022-08-24T13:47:33.244Z,1.10
2022-08-24T13:50:05.449Z,1.43
2022-08-24T13:52:39.625Z,0.90
2022-08-24T13:55:39.178Z,1.03
2022-08-24T13:58:15.551Z,0.83
2022-08-24T14:00:48.530Z,1.20
2022-08-24T14:03:35.891Z,1.33
2022-08-24T14:06:21.321Z,1.23
2022-08-24T14:08:58.620Z,0.63
2022-08-24T14:11:42.517Z,0.83
2022-08-24T14:14:18.680Z,0.83
2022-08-24T14:17:20.029Z,0.90
2022-08-24T14:20:00.146Z,1.20
2022-08-24T14:22:35.171Z,1.30
2022-08-24T14:25:21.000Z,1.13
2022-08-24T14:27:51.189Z,1.60
2022-08-24T14:30:45.408Z,1.60
2022-08-24T14:33:27.217Z,1.40
2022-08-24T14:36:19.152Z,1.63
2022-08-24T14:39:01.990Z,1.27
2022-08-24T14:41:51.292Z,1.00
2022-08-24T14:44:42.843Z,1.77
2022-08-24T14:47:22.146Z,1.70
2022-08-24T14:50:09.177Z,2.07
2022-08-24T14:53:04.209Z,1.60
2022-08-24T14:55:39.331Z,1.40
2022-08-24T14:58:25.522Z,1.83
2022-08-24T15:01:16.791Z,1.20
2022-08-24T15:03:56.034Z,2.57
2022-08-24T15:06:29.631Z,3.80
2022-08-24T15:09:12.599Z,2.00
2022-08-24T15:11:42.517Z,1.53
2022-08-24T15:14:22.296Z,1.20
2022-08-24T15:17:00.588Z,1.30
2022-08-24T15:19:44.402Z,1.80
2022-08-24T15:22:24.979Z,2.97
2022-08-24T15:25:01.150Z,1.20
2022-08-24T15:27:42.377Z,1.30
2022-08-24T15:30:23.094Z,1.73
2022-08-24T15:32:54.016Z,1.40
2022-08-24T15:35:31.630Z,4.73
2022-08-24T15:38:16.476Z,1.30
2022-08-24T15:40:47.627Z,1.20
2022-08-24T15:43:16.160Z,1.30
2022-08-24T15:45:48.148Z,1.50
2022-08-24T15:48:21.250Z,1.80
2022-08-24T15:50:53.813Z,1.73
2022-08-24T15:53:39.605Z,1.57
2022-08-24T15:56:24.288Z,2.13
2022-08-24T15:58:54.379Z,2.00
2022-08-24T16:01:46.750Z,2.53
2022-08-24T16:04:17.444Z,3.83
2022-08-24T16:06:49.144Z,1.83
2022-08-24T16:09:37.624Z,1.80
2022-08-24T16:12:10.038Z,1.80
2022-08-24T16:14:47.027Z,1.60
2022-08-24T16:17:37.955Z,1.70
2022-08-24T16:20:09.129Z,1.70
2022-08-24T16:22:41.049Z,2.30
2022-08-24T16:25:19.944Z,2.00
2022-08-24T16:27:57.857Z,2.17
2022-08-24T16:30:37.633Z,2.27
2022-08-24T16:33:06.479Z,1.93
2022-08-24T16:35:34.732Z,1.30
2022-08-24T16:38:04.665Z,2.07
2022-08-24T16:40:34.611Z,3.13
2022-08-24T16:43:03.139Z,1.80
2022-08-24T16:45:35.752Z,2.00
2022-08-24T16:48:04.839Z,1.83
2022-08-24T16:50:33.527Z,1.90
2022-08-24T16:53:02.602Z,3.80
2022-08-24T16:55:32.513Z,2.97
2022-08-24T16:58:01.453Z,4.10
2022-08-24T17:00:30.078Z,1.93
2022-08-24T17:02:58.094Z,1.80
2022-08-24T17:05:26.121Z,2.00
2022-08-24T17:07:54.326Z,1.90
2022-08-24T17:10:23.651Z,2.30
2022-08-24T17:12:53.040Z,2.00
2022-08-24T17:15:23.527Z,1.60
2022-08-24T17:17:56.774Z,2.70
2022-08-24T17:20:26.258Z,1.50
2022-08-24T17:22:55.665Z,1.93
2022-08-24T17:25:25.230Z,1.70
2022-08-24T17:27:56.643Z,2.10
2022-08-24T17:30:27.227Z,1.57
2022-08-24T17:33:00.301Z,2.73
2022-08-24T17:35:29.747Z,2.07
2022-08-24T17:37:59.924Z,2.77
2022-08-24T17:40:31.698Z,1.93
2022-08-24T17:43:03.036Z,2.33
2022-08-24T17:45:33.326Z,3.27
2022-08-24T17:48:01.757Z,1.40
2022-08-24T17:50:30.278Z,1.83
2022-08-24T17:53:00.428Z,1.87
2022-08-24T17:55:29.577Z,1.87
2022-08-24T17:57:58.106Z,1.97
2022-08-24T18:00:27.849Z,2.53
2022-08-24T18:02:56.221Z,1.90
2022-08-24T18:05:24.584Z,3.50
2022-08-24T18:07:54.932Z,1.83
2022-08-24T18:10:24.660Z,1.70
2022-08-24T18:12:53.112Z,2.43
2022-08-24T18:15:21.791Z,1.80
2022-08-24T18:18:03.180Z,2.30
2022-08-24T18:20:34.766Z,2.50
2022-08-24T18:23:03.094Z,2.43
2022-08-24T18:25:37.535Z,2.97
2022-08-24T18:28:05.989Z,2.67
2022-08-24T18:30:34.288Z,2.80
2022-08-24T18:33:04.587Z,1.80
2022-08-24T18:35:33.105Z,2.20
2022-08-24T18:38:01.426Z,4.83
2022-08-24T18:40:33.457Z,3.40
2022-08-24T18:43:02.318Z,2.13
2022-08-24T18:45:32.141Z,4.30
2022-08-24T18:48:00.603Z,2.07
2022-08-24T18:50:30.318Z,3.90
2022-08-24T18:52:59.513Z,4.07
2022-08-24T18:55:28.098Z,2.77
2022-08-24T18:57:56.468Z,3.90
2022-08-24T19:00:24.790Z,2.40
2022-08-24T19:02:53.105Z,4.77
2022-08-24T19:05:22.904Z,2.63
2022-08-24T19:07:54.409Z,4.00
2022-08-24T19:10:23.696Z,2.83
2022-08-24T19:12:54.452Z,2.67
2022-08-24T19:15:32.361Z,2.80
2022-08-24T19:18:09.771Z,6.30
2022-08-24T19:20:39.021Z,2.27
2022-08-24T19:23:09.680Z,7.80
2022-08-24T19:25:38.581Z,4.40
2022-08-24T19:28:07.446Z,2.00
2022-08-24T19:30:35.846Z,3.77
2022-08-24T19:33:04.855Z,2.63
2022-08-24T19:35:34.678Z,2.70
2022-08-24T19:38:03.269Z,3.87
2022-08-24T19:40:33.098Z,2.13
2022-08-24T19:43:03.322Z,3.20
2022-08-24T19:45:49.494Z,2.57
2022-08-24T19:48:17.997Z,4.23
2022-08-24T19:50:46.351Z,2.93
2022-08-24T19:53:14.856Z,3.80
2022-08-24T19:55:47.548Z,4.27
2022-08-24T19:58:23.779Z,2.93
2022-08-24T20:00:56.885Z,3.20
2022-08-24T20:03:25.542Z,3.00
2022-08-24T20:05:53.886Z,2.30
2022-08-24T20:08:22.781Z,3.47
2022-08-24T20:10:53.096Z,5.27
2022-08-24T20:13:21.511Z,2.23
2022-08-24T20:15:49.795Z,2.57
2022-08-24T20:18:18.252Z,4.33
2022-08-24T20:20:46.608Z,3.63
2022-08-24T20:23:18.366Z,4.67
2022-08-24T20:25:46.839Z,3.20
2022-08-24T20:28:37.358Z,4.23
2022-08-24T20:31:05.285Z,4.10
2022-08-24T20:33:33.592Z,3.47
2022-08-24T20:36:02.060Z,3.73
2022-08-24T20:38:31.878Z,3.10
2022-08-24T20:41:00.849Z,3.40
2022-08-24T20:43:30.578Z,3.50
2022-08-24T20:45:58.934Z,3.73
2022-08-24T20:48:29.050Z,3.47
2022-08-24T20:50:57.739Z,3.87
2022-08-24T20:53:26.799Z,4.13
2022-08-24T20:55:56.937Z,3.70
2022-08-24T20:58:25.546Z,3.00
2022-08-24T21:00:55.279Z,3.43
2022-08-24T21:03:23.669Z,4.60
2022-08-24T21:05:52.564Z,2.60
2022-08-24T21:08:21.437Z,2.90
2022-08-24T21:10:49.744Z,2.83
2022-08-24T21:13:18.162Z,3.83
2022-08-24T21:15:46.595Z,3.53
2022-08-24T21:18:16.709Z,5.00
2022-08-24T21:21:00.778Z,4.57
2022-08-24T21:23:32.739Z,3.67
2022-08-24T21:26:01.270Z,2.70
2022-08-24T21:28:29.936Z,4.30
2022-08-24T21:31:00.534Z,3.50
2022-08-24T21:33:53.404Z,4.60
2022-08-24T21:36:23.501Z,4.63
2022-08-24T21:38:53.613Z,3.53
2022-08-24T21:41:23.076Z,8.63
2022-08-24T21:43:51.865Z,4.80
2022-08-24T21:46:20.261Z,3.30
2022-08-24T21:48:50.026Z,3.27
2022-08-24T21:51:18.320Z,4.60
2022-08-24T21:53:47.464Z,3.30
2022-08-24T21:56:24.505Z,3.60
2022-08-24T21:58:53.104Z,3.63
2022-08-24T22:01:21.552Z,4.63
2022-08-24T22:03:51.326Z,2.80
2022-08-24T22:06:19.646Z,3.70
2022-08-24T22:08:47.939Z,7.60
2022-08-24T22:11:17.246Z,3.40
2022-08-24T22:13:45.643Z,6.57
2022-08-24T22:16:14.416Z,4.20
2022-08-24T22:18:43.079Z,4.53
2022-08-24T22:21:14.518Z,4.70
2022-08-24T22:23:42.899Z,3.20
2022-08-24T22:26:11.293Z,4.80
2022-08-24T22:28:40.705Z,3.93
2022-08-24T22:31:16.046Z,5.03
2022-08-24T22:33:44.439Z,3.83
2022-08-24T22:36:14.848Z,4.20
2022-08-24T22:38:43.262Z,3.97
2022-08-24T22:41:12.095Z,5.70
2022-08-24T22:43:58.088Z,5.90
2022-08-24T22:46:27.121Z,4.27
2022-08-24T22:48:55.410Z,3.17
2022-08-24T22:51:25.136Z,3.70
2022-08-24T22:53:54.239Z,4.57
2022-08-24T22:56:24.616Z,5.20
2022-08-24T22:58:53.123Z,3.23
2022-08-24T23:01:22.366Z,4.30
2022-08-24T23:03:50.960Z,4.07
2022-08-24T23:06:19.251Z,4.93
2022-08-24T23:08:49.004Z,4.23
2022-08-24T23:11:17.438Z,3.87
2022-08-24T23:13:46.284Z,3.60
2022-08-24T23:16:14.959Z,5.60
2022-08-24T23:19:00.718Z,3.87
2022-08-24T23:21:29.447Z,4.80
2022-08-24T23:23:59.382Z,7.17
2022-08-24T23:26:28.203Z,3.67
2022-08-24T23:28:56.503Z,2.70
2022-08-24T23:31:24.870Z,5.10
2022-08-24T23:33:54.104Z,13.73
2022-08-24T23:36:23.664Z,4.40
2022-08-24T23:38:53.380Z,4.40
2022-08-24T23:41:25.907Z,6.40
2022-08-24T23:43:54.702Z,10.80
2022-08-24T23:46:23.548Z,3.40
2022-08-24T23:48:55.561Z,3.73
2022-08-24T23:51:25.445Z,5.13
2022-08-24T23:53:54.239Z,3.93
2022-08-24T23:56:26.237Z,5.80
2022-08-24T23:58:54.532Z,5.40
